PWSweather.com
Personal Weather Stations
Station Observations
PWSTHORN2
Thornton, Nh Usa, Thornton, NH 03285

Thornton, Nh UsaThornton, NH 03285

Lat: 43.8870699, Lon: -71.6632763

Elevation: 640

Station Type: Ambient WS 2080

Latest ConditionsUpdated 2:55:02 PM EST Wednesday, Dec 12, 2018
Currently Today's Max Today's Min Today's Average
Temperature 24.3°F-4.3°C 30.2°F-1.0°C 9.5°F-12.5°C 18.8°F-7.3°C
Dew Point 10.9°F-11.7°C 16.4°F-8.7°C -2.9°F-19.4°C 5.7°F-14.6°C
Winds 6.9 mph SSE11.1 kmh SSE 15.9 mph -25.6 kmh - - 3.8 mph 6.1 kmh
Wind Gusts 19.7 mph31.7 kmh 26.6 mph42.8 kmh - -
Humidity 56% 56% 56% 56%
Pressure 29.50 in999.0 mb 29.50 in999.0 mb 29.31 in992.6 mb -
Hour Temp Dew Point Humidity Winds Wind Gusts Pressure Precip Precip Rate Daily Precip Total
02:55 PM 24.3°F-4.3°C 10.9°F-11.7°C 56% 6.9 mph SSE11.1 kmh SSE 19.7 mph31.7 kmh 29.50 in999.0 mb 0.00 in0.0 mm 0.00 in0.0 mm 0.00 in0.0 mm
02:50 PM 24.1°F-4.4°C 10.7°F-11.8°C 56% 8.3 mph SSE13.4 kmh SSE 19.7 mph31.7 kmh 29.50 in999.0 mb 0.00 in0.0 mm 0.00 in0.0 mm 0.00 in0.0 mm
02:45 PM 24.3°F-4.3°C 10.9°F-11.7°C 56% 6.9 mph S11.1 kmh S 17.4 mph28.0 kmh 29.50 in999.0 mb 0.00 in0.0 mm 0.00 in0.0 mm 0.00 in0.0 mm
02:40 PM 24.4°F-4.2°C 11.0°F-11.7°C 56% 13.6 mph S21.9 kmh S 18.3 mph29.5 kmh 29.50 in999.0 mb 0.00 in0.0 mm 0.00 in0.0 mm 0.00 in0.0 mm
02:35 PM 24.3°F-4.3°C 10.9°F-11.7°C 56% 8.3 mph SSE13.4 kmh SSE 18.3 mph29.5 kmh 29.50 in999.0 mb 0.00 in0.0 mm 0.00 in0.0 mm 0.00 in0.0 mm
02:30 PM 24.4°F-4.2°C 11.0°F-11.7°C 56% 11.4 mph SE18.3 kmh SE 15.2 mph24.5 kmh 29.50 in999.0 mb 0.00 in0.0 mm 0.00 in0.0 mm 0.00 in0.0 mm
02:25 PM 24.3°F-4.3°C 10.9°F-11.7°C 56% 6.9 mph SE11.1 kmh SE 21.3 mph34.3 kmh 29.49 in998.6 mb 0.00 in0.0 mm 0.00 in0.0 mm 0.00 in0.0 mm
02:20 PM 24.4°F-4.2°C 11.0°F-11.7°C 56% 6.0 mph SE9.7 kmh SE 21.3 mph34.3 kmh 29.50 in999.0 mb 0.00 in0.0 mm 0.00 in0.0 mm 0.00 in0.0 mm
02:15 PM 24.3°F-4.3°C 10.9°F-11.7°C 56% 9.2 mph SSE14.8 kmh SSE 15.9 mph25.6 kmh 29.50 in999.0 mb 0.00 in0.0 mm 0.00 in0.0 mm 0.00 in0.0 mm
02:10 PM 24.3°F-4.3°C 10.9°F-11.7°C 56% 9.8 mph SSE15.8 kmh SSE 15.9 mph25.6 kmh 29.50 in999.0 mb 0.00 in0.0 mm 0.00 in0.0 mm 0.00 in0.0 mm
02:05 PM 24.4°F-4.2°C 11.0°F-11.7°C 56% 8.3 mph SSE13.4 kmh SSE 14.5 mph23.3 kmh 29.50 in999.0 mb 0.00 in0.0 mm 0.00 in0.0 mm 0.00 in0.0 mm
02:00 PM 24.4°F-4.2°C 11.0°F-11.7°C 56% 7.6 mph SSE12.2 kmh SSE 16.8 mph27.0 kmh 29.49 in998.6 mb 0.00 in0.0 mm 0.00 in0.0 mm 0.00 in0.0 mm
01:55 PM 24.1°F-4.4°C 10.7°F-11.8°C 56% 7.6 mph S12.2 kmh S 21.3 mph34.3 kmh 29.49 in998.6 mb 0.00 in0.0 mm 0.00 in0.0 mm 0.00 in0.0 mm
01:50 PM 24.4°F-4.2°C 11.0°F-11.7°C 56% 9.8 mph SW15.8 kmh SW 21.3 mph34.3 kmh 29.49 in998.6 mb 0.00 in0.0 mm 0.00 in0.0 mm 0.00 in0.0 mm
01:45 PM 24.4°F-4.2°C 11.0°F-11.7°C 56% 14.5 mph S23.3 kmh S 21.3 mph34.3 kmh 29.49 in998.6 mb 0.00 in0.0 mm 0.00 in0.0 mm 0.00 in0.0 mm
01:40 PM 24.4°F-4.2°C 11.0°F-11.7°C 56% 12.1 mph S19.5 kmh S 19.7 mph31.7 kmh 29.48 in998.3 mb 0.00 in0.0 mm 0.00 in0.0 mm 0.00 in0.0 mm
01:35 PM 24.3°F-4.3°C 10.9°F-11.7°C 56% 6.9 mph S11.1 kmh S 15.9 mph25.6 kmh 29.48 in998.3 mb 0.00 in0.0 mm 0.00 in0.0 mm 0.00 in0.0 mm
01:30 PM 24.6°F-4.1°C 11.2°F-11.6°C 56% 10.7 mph S17.2 kmh S 16.8 mph27.0 kmh 29.48 in998.3 mb 0.00 in0.0 mm 0.00 in0.0 mm 0.00 in0.0 mm
01:25 PM 24.6°F-4.1°C 11.2°F-11.6°C 56% 6.9 mph S11.1 kmh S 16.8 mph27.0 kmh 29.48 in998.3 mb 0.00 in0.0 mm 0.00 in0.0 mm 0.00 in0.0 mm
01:20 PM 24.4°F-4.2°C 11.0°F-11.7°C 56% 10.7 mph S17.2 kmh S 19.7 mph31.7 kmh 29.47 in998.0 mb 0.00 in0.0 mm 0.00 in0.0 mm 0.00 in0.0 mm
01:15 PM 24.4°F-4.2°C 11.0°F-11.7°C 56% 10.7 mph S17.2 kmh S 19.7 mph31.7 kmh 29.47 in998.0 mb 0.00 in0.0 mm 0.00 in0.0 mm 0.00 in0.0 mm
01:10 PM 24.4°F-4.2°C 11.0°F-11.7°C 56% 5.4 mph S8.7 kmh S 21.3 mph34.3 kmh 29.47 in998.0 mb 0.00 in0.0 mm 0.00 in0.0 mm 0.00 in0.0 mm
01:05 PM 24.3°F-4.3°C 10.9°F-11.7°C 56% 9.2 mph S14.8 kmh S 21.3 mph34.3 kmh 29.46 in997.6 mb 0.00 in0.0 mm 0.00 in0.0 mm 0.00 in0.0 mm
01:00 PM 24.4°F-4.2°C 11.0°F-11.7°C 56% 13.0 mph S20.9 kmh S 21.3 mph34.3 kmh 29.46 in997.6 mb 0.00 in0.0 mm 0.00 in0.0 mm 0.00 in0.0 mm
12:55 PM 24.3°F-4.3°C 10.9°F-11.7°C 56% 7.6 mph SSE12.2 kmh SSE 20.6 mph33.2 kmh 29.46 in997.6 mb 0.00 in0.0 mm 0.00 in0.0 mm 0.00 in0.0 mm
12:50 PM 24.4°F-4.2°C 11.0°F-11.7°C 56% 14.5 mph SSE23.3 kmh SSE 22.1 mph35.6 kmh 29.45 in997.3 mb 0.00 in0.0 mm 0.00 in0.0 mm 0.00 in0.0 mm
12:45 PM 24.4°F-4.2°C 11.0°F-11.7°C 56% 11.4 mph S18.3 kmh S 24.4 mph39.3 kmh 29.45 in997.3 mb 0.00 in0.0 mm 0.00 in0.0 mm 0.00 in0.0 mm
12:40 PM 24.6°F-4.1°C 11.2°F-11.6°C 56% 13.6 mph S21.9 kmh S 24.4 mph39.3 kmh 29.45 in997.3 mb 0.00 in0.0 mm 0.00 in0.0 mm 0.00 in0.0 mm
12:35 PM 25.0°F-3.9°C 11.5°F-11.4°C 56% 9.8 mph S15.8 kmh S 23.5 mph37.8 kmh 29.46 in997.6 mb 0.00 in0.0 mm 0.00 in0.0 mm 0.00 in0.0 mm
12:30 PM 25.2°F-3.8°C 11.7°F-11.3°C 56% 6.0 mph S9.7 kmh S 17.4 mph28.0 kmh 29.45 in997.3 mb 0.00 in0.0 mm 0.00 in0.0 mm 0.00 in0.0 mm
12:25 PM 25.0°F-3.9°C 11.5°F-11.4°C 56% 8.3 mph S13.4 kmh S 24.4 mph39.3 kmh 29.45 in997.3 mb 0.00 in0.0 mm 0.00 in0.0 mm 0.00 in0.0 mm
12:20 PM 24.8°F-4.0°C 11.4°F-11.4°C 56% 10.7 mph S17.2 kmh S 24.4 mph39.3 kmh 29.45 in997.3 mb 0.00 in0.0 mm 0.00 in0.0 mm 0.00 in0.0 mm
12:15 PM 24.8°F-4.0°C 11.4°F-11.4°C 56% 9.8 mph S15.8 kmh S 20.6 mph33.2 kmh 29.45 in997.3 mb 0.00 in0.0 mm 0.00 in0.0 mm 0.00 in0.0 mm
12:10 PM 24.8°F-4.0°C 11.4°F-11.4°C 56% 12.1 mph S19.5 kmh S 20.6 mph33.2 kmh 29.45 in997.3 mb 0.00 in0.0 mm 0.00 in0.0 mm 0.00 in0.0 mm
12:05 PM 25.2°F-3.8°C 11.7°F-11.3°C 56% 14.5 mph SSW23.3 kmh SSW 23.5 mph37.8 kmh 29.45 in997.3 mb 0.00 in0.0 mm 0.00 in0.0 mm 0.00 in0.0 mm
12:00 PM 24.8°F-4.0°C 11.4°F-11.4°C 56% 8.3 mph S13.4 kmh S 23.5 mph37.8 kmh 29.44 in997.0 mb 0.00 in0.0 mm 0.00 in0.0 mm 0.00 in0.0 mm
11:55 AM 25.0°F-3.9°C 11.5°F-11.4°C 56% 13.6 mph S21.9 kmh S 26.6 mph42.8 kmh 29.44 in997.0 mb 0.00 in0.0 mm 0.00 in0.0 mm 0.00 in0.0 mm
11:50 AM 25.3°F-3.7°C 11.9°F-11.2°C 56% 15.9 mph S25.6 kmh S 26.6 mph42.8 kmh 29.44 in997.0 mb 0.00 in0.0 mm 0.00 in0.0 mm 0.00 in0.0 mm
11:45 AM 25.3°F-3.7°C 11.9°F-11.2°C 56% 6.0 mph SW9.7 kmh SW 18.3 mph29.5 kmh 29.44 in997.0 mb 0.00 in0.0 mm 0.00 in0.0 mm 0.00 in0.0 mm
11:40 AM 25.5°F-3.6°C 12.0°F-11.1°C 56% 13.6 mph SSW21.9 kmh SSW 20.6 mph33.2 kmh 29.44 in997.0 mb 0.00 in0.0 mm 0.00 in0.0 mm 0.00 in0.0 mm
11:35 AM 25.9°F-3.4°C 12.4°F-10.9°C 56% 5.4 mph S8.7 kmh S 20.6 mph33.2 kmh 29.44 in997.0 mb 0.00 in0.0 mm 0.00 in0.0 mm 0.00 in0.0 mm
11:30 AM 25.5°F-3.6°C 12.0°F-11.1°C 56% 6.0 mph S9.7 kmh S 11.4 mph18.3 kmh 29.43 in996.6 mb 0.00 in0.0 mm 0.00 in0.0 mm 0.00 in0.0 mm
11:25 AM 25.3°F-3.7°C 11.9°F-11.2°C 56% 3.8 mph S6.1 kmh S 17.4 mph28.0 kmh 29.43 in996.6 mb 0.00 in0.0 mm 0.00 in0.0 mm 0.00 in0.0 mm
11:20 AM 25.5°F-3.6°C 12.0°F-11.1°C 56% 9.2 mph SSW14.8 kmh SSW 22.8 mph36.7 kmh 29.44 in997.0 mb 0.00 in0.0 mm 0.00 in0.0 mm 0.00 in0.0 mm
11:15 AM 26.1°F-3.3°C 12.6°F-10.8°C 56% 11.4 mph SW18.3 kmh SW 22.8 mph36.7 kmh 29.44 in997.0 mb 0.00 in0.0 mm 0.00 in0.0 mm 0.00 in0.0 mm
11:10 AM 26.4°F-3.1°C 12.9°F-10.6°C 56% 13.0 mph SW20.9 kmh SW 19.0 mph30.6 kmh 29.43 in996.6 mb 0.00 in0.0 mm 0.00 in0.0 mm 0.00 in0.0 mm
11:05 AM 26.1°F-3.3°C 12.6°F-10.8°C 56% 4.5 mph SSW7.2 kmh SSW 20.6 mph33.2 kmh 29.44 in997.0 mb 0.00 in0.0 mm 0.00 in0.0 mm 0.00 in0.0 mm
11:00 AM 25.7°F-3.5°C 12.2°F-11.0°C 56% 9.2 mph SSW14.8 kmh SSW 20.6 mph33.2 kmh 29.43 in996.6 mb 0.00 in0.0 mm 0.00 in0.0 mm 0.00 in0.0 mm
10:55 AM 26.6°F-3.0°C 13.1°F-10.5°C 56% 13.6 mph SSW21.9 kmh SSW 19.7 mph31.7 kmh 29.44 in997.0 mb 0.00 in0.0 mm 0.00 in0.0 mm 0.00 in0.0 mm
10:50 AM 26.8°F-2.9°C 13.2°F-10.4°C 56% 10.7 mph SSW17.2 kmh SSW 19.7 mph31.7 kmh 29.44 in997.0 mb 0.00 in0.0 mm 0.00 in0.0 mm 0.00 in0.0 mm
10:45 AM 26.6°F-3.0°C 13.1°F-10.5°C 56% 4.5 mph SSW7.2 kmh SSW 18.3 mph29.5 kmh 29.43 in996.6 mb 0.00 in0.0 mm 0.00 in0.0 mm 0.00 in0.0 mm
10:40 AM 26.4°F-3.1°C 12.9°F-10.6°C 56% 5.4 mph S8.7 kmh S 14.5 mph23.3 kmh 29.43 in996.6 mb 0.00 in0.0 mm 0.00 in0.0 mm 0.00 in0.0 mm
10:35 AM 26.4°F-3.1°C 12.9°F-10.6°C 56% 9.2 mph S14.8 kmh S 16.8 mph27.0 kmh 29.43 in996.6 mb 0.00 in0.0 mm 0.00 in0.0 mm 0.00 in0.0 mm
10:30 AM 26.2°F-3.2°C 12.7°F-10.7°C 56% 8.3 mph SSE13.4 kmh SSE 16.8 mph27.0 kmh 29.43 in996.6 mb 0.00 in0.0 mm 0.00 in0.0 mm 0.00 in0.0 mm
10:25 AM 26.4°F-3.1°C 12.9°F-10.6°C 56% 10.7 mph SSE17.2 kmh SSE 14.5 mph23.3 kmh 29.43 in996.6 mb 0.00 in0.0 mm 0.00 in0.0 mm 0.00 in0.0 mm
10:20 AM 26.8°F-2.9°C 13.2°F-10.4°C 56% 6.0 mph S9.7 kmh S 15.2 mph24.5 kmh 29.43 in996.6 mb 0.00 in0.0 mm 0.00 in0.0 mm 0.00 in0.0 mm
10:15 AM 27.7°F-2.4°C 14.1°F-9.9°C 56% 9.2 mph WSW14.8 kmh WSW 15.2 mph24.5 kmh 29.43 in996.6 mb 0.00 in0.0 mm 0.00 in0.0 mm 0.00 in0.0 mm
10:10 AM 28.0°F-2.2°C 14.4°F-9.8°C 56% 7.6 mph W12.2 kmh W 11.4 mph18.3 kmh 29.43 in996.6 mb 0.00 in0.0 mm 0.00 in0.0 mm 0.00 in0.0 mm
10:05 AM 28.9°F-1.7°C 15.2°F-9.3°C 56% 4.5 mph WSW7.2 kmh WSW 11.4 mph18.3 kmh 29.43 in996.6 mb 0.00 in0.0 mm 0.00 in0.0 mm 0.00 in0.0 mm
10:00 AM 29.7°F-1.3°C 15.9°F-8.9°C 56% 4.5 mph SW7.2 kmh SW 8.3 mph13.4 kmh 29.43 in996.6 mb 0.00 in0.0 mm 0.00 in0.0 mm 0.00 in0.0 mm
09:55 AM 29.3°F-1.5°C 15.6°F-9.1°C 56% 5.4 mph WSW8.7 kmh WSW 9.2 mph14.8 kmh 29.43 in996.6 mb 0.00 in0.0 mm 0.00 in0.0 mm 0.00 in0.0 mm
09:50 AM 30.2°F-1.0°C 16.4°F-8.7°C 56% 5.4 mph W8.7 kmh W 9.8 mph15.8 kmh 29.43 in996.6 mb 0.00 in0.0 mm 0.00 in0.0 mm 0.00 in0.0 mm
09:45 AM 28.9°F-1.7°C 15.2°F-9.3°C 56% 5.4 mph W8.7 kmh W 9.8 mph15.8 kmh 29.43 in996.6 mb 0.00 in0.0 mm 0.00 in0.0 mm 0.00 in0.0 mm
09:40 AM 28.2°F-2.1°C 14.6°F-9.7°C 56% 3.8 mph W6.1 kmh W 9.8 mph15.8 kmh 29.43 in996.6 mb 0.00 in0.0 mm 0.00 in0.0 mm 0.00 in0.0 mm
09:35 AM 27.9°F-2.3°C 14.2°F-9.9°C 56% 3.1 mph WSW5.0 kmh WSW 9.8 mph15.8 kmh 29.43 in996.6 mb 0.00 in0.0 mm 0.00 in0.0 mm 0.00 in0.0 mm
09:30 AM 27.3°F-2.6°C 13.7°F-10.2°C 56% 3.1 mph SW5.0 kmh SW 9.2 mph14.8 kmh 29.43 in996.6 mb 0.00 in0.0 mm 0.00 in0.0 mm 0.00 in0.0 mm
09:25 AM 27.5°F-2.5°C 13.9°F-10.1°C 56% 5.4 mph SW8.7 kmh SW 9.2 mph14.8 kmh 29.43 in996.6 mb 0.00 in0.0 mm 0.00 in0.0 mm 0.00 in0.0 mm
09:20 AM 27.5°F-2.5°C 13.9°F-10.1°C 56% 3.8 mph SW6.1 kmh SW 7.6 mph12.2 kmh 29.42 in996.3 mb 0.00 in0.0 mm 0.00 in0.0 mm 0.00 in0.0 mm
09:15 AM 27.1°F-2.7°C 13.6°F-10.2°C 56% 1.6 mph SW2.6 kmh SW 7.6 mph12.2 kmh 29.42 in996.3 mb 0.00 in0.0 mm 0.00 in0.0 mm 0.00 in0.0 mm
09:10 AM 26.2°F-3.2°C 12.7°F-10.7°C 56% 4.5 mph WSW7.2 kmh WSW 9.2 mph14.8 kmh 29.43 in996.6 mb 0.00 in0.0 mm 0.00 in0.0 mm 0.00 in0.0 mm
09:05 AM 26.2°F-3.2°C 12.7°F-10.7°C 56% 0.7 mph WSW1.1 kmh WSW 9.2 mph14.8 kmh 29.43 in996.6 mb 0.00 in0.0 mm 0.00 in0.0 mm 0.00 in0.0 mm
09:00 AM 25.5°F-3.6°C 12.0°F-11.1°C 56% 6.0 mph WSW9.7 kmh WSW 9.2 mph14.8 kmh 29.42 in996.3 mb 0.00 in0.0 mm 0.00 in0.0 mm 0.00 in0.0 mm
08:55 AM 25.0°F-3.9°C 11.5°F-11.4°C 56% 3.8 mph SW6.1 kmh SW 9.2 mph14.8 kmh 29.41 in995.9 mb 0.00 in0.0 mm 0.00 in0.0 mm 0.00 in0.0 mm
08:50 AM 25.0°F-3.9°C 11.5°F-11.4°C 56% 6.0 mph SW9.7 kmh SW 9.8 mph15.8 kmh 29.41 in995.9 mb 0.00 in0.0 mm 0.00 in0.0 mm 0.00 in0.0 mm
08:45 AM 24.8°F-4.0°C 11.4°F-11.4°C 56% 3.8 mph SW6.1 kmh SW 12.1 mph19.5 kmh 29.41 in995.9 mb 0.00 in0.0 mm 0.00 in0.0 mm 0.00 in0.0 mm
08:40 AM 24.8°F-4.0°C 11.4°F-11.4°C 56% 6.0 mph SW9.7 kmh SW 12.1 mph19.5 kmh 29.41 in995.9 mb 0.00 in0.0 mm 0.00 in0.0 mm 0.00 in0.0 mm
08:35 AM 24.6°F-4.1°C 11.2°F-11.6°C 56% 5.4 mph SSW8.7 kmh SSW 11.4 mph18.3 kmh 29.41 in995.9 mb 0.00 in0.0 mm 0.00 in0.0 mm 0.00 in0.0 mm
08:30 AM 24.4°F-4.2°C 11.0°F-11.7°C 56% 6.9 mph SSW11.1 kmh SSW 11.4 mph18.3 kmh 29.40 in995.6 mb 0.00 in0.0 mm 0.00 in0.0 mm 0.00 in0.0 mm
08:25 AM 23.9°F-4.5°C 10.5°F-11.9°C 56% 6.9 mph SW11.1 kmh SW 11.4 mph18.3 kmh 29.40 in995.6 mb 0.00 in0.0 mm 0.00 in0.0 mm 0.00 in0.0 mm
08:20 AM 23.2°F-4.9°C 9.9°F-12.3°C 56% 3.8 mph SW6.1 kmh SW 11.4 mph18.3 kmh 29.40 in995.6 mb 0.00 in0.0 mm 0.00 in0.0 mm 0.00 in0.0 mm
08:15 AM 21.6°F-5.8°C 8.3°F-13.2°C 56% 4.5 mph SSW7.2 kmh SSW 8.3 mph13.4 kmh 29.39 in995.3 mb 0.00 in0.0 mm 0.00 in0.0 mm 0.00 in0.0 mm
08:10 AM 19.2°F-7.1°C 6.2°F-14.3°C 56% 5.4 mph SW8.7 kmh SW 6.9 mph11.1 kmh 29.39 in995.3 mb 0.00 in0.0 mm 0.00 in0.0 mm 0.00 in0.0 mm
08:05 AM 17.6°F-8.0°C 4.6°F-15.2°C 56% 2.2 mph WNW3.5 kmh WNW 6.0 mph9.7 kmh 29.39 in995.3 mb 0.00 in0.0 mm 0.00 in0.0 mm 0.00 in0.0 mm
08:00 AM 17.1°F-8.3°C 4.1°F-15.5°C 56% 0.7 mph NW1.1 kmh NW 1.6 mph2.6 kmh 29.39 in995.3 mb 0.00 in0.0 mm 0.00 in0.0 mm 0.00 in0.0 mm
07:55 AM 16.7°F-8.5°C 3.8°F-15.7°C 56% 0.7 mph NW1.1 kmh NW 1.6 mph2.6 kmh 29.39 in995.3 mb 0.00 in0.0 mm 0.00 in0.0 mm 0.00 in0.0 mm
07:50 AM 16.5°F-8.6°C 3.6°F-15.8°C 56% Calm Calm 1.6 mph2.6 kmh 29.39 in995.3 mb 0.00 in0.0 mm 0.00 in0.0 mm 0.00 in0.0 mm
07:45 AM 16.5°F-8.6°C 3.6°F-15.8°C 56% Calm Calm 1.6 mph2.6 kmh 29.39 in995.3 mb 0.00 in0.0 mm 0.00 in0.0 mm 0.00 in0.0 mm
07:40 AM 16.3°F-8.7°C 3.5°F-15.8°C 56% Calm Calm 2.2 mph3.5 kmh 29.38 in994.9 mb 0.00 in0.0 mm 0.00 in0.0 mm 0.00 in0.0 mm
07:35 AM 16.3°F-8.7°C 3.5°F-15.8°C 56% Calm Calm 2.2 mph3.5 kmh 29.38 in994.9 mb 0.00 in0.0 mm 0.00 in0.0 mm 0.00 in0.0 mm
07:30 AM 16.3°F-8.7°C 3.5°F-15.8°C 56% Calm Calm 1.6 mph2.6 kmh 29.38 in994.9 mb 0.00 in0.0 mm 0.00 in0.0 mm 0.00 in0.0 mm
07:25 AM 16.2°F-8.8°C 3.3°F-15.9°C 56% Calm Calm 1.6 mph2.6 kmh 29.38 in994.9 mb 0.00 in0.0 mm 0.00 in0.0 mm 0.00 in0.0 mm
07:20 AM 16.2°F-8.8°C 3.3°F-15.9°C 56% 0.7 mph NW1.1 kmh NW 1.6 mph2.6 kmh 29.37 in994.6 mb 0.00 in0.0 mm 0.00 in0.0 mm 0.00 in0.0 mm
07:15 AM 16.0°F-8.9°C 3.1°F-16.1°C 56% Calm Calm 0.7 mph1.1 kmh 29.37 in994.6 mb 0.00 in0.0 mm 0.00 in0.0 mm 0.00 in0.0 mm
07:10 AM 16.0°F-8.9°C 3.1°F-16.1°C 56% Calm Calm 0.7 mph1.1 kmh 29.37 in994.6 mb 0.00 in0.0 mm 0.00 in0.0 mm 0.00 in0.0 mm
07:05 AM 15.8°F-9.0°C 3.0°F-16.1°C 56% Calm Calm 1.6 mph2.6 kmh 29.38 in994.9 mb 0.00 in0.0 mm 0.00 in0.0 mm 0.00 in0.0 mm
07:00 AM 15.8°F-9.0°C 3.0°F-16.1°C 56% Calm Calm 1.6 mph2.6 kmh 29.36 in994.2 mb 0.00 in0.0 mm 0.00 in0.0 mm 0.00 in0.0 mm
06:55 AM 15.6°F-9.1°C 2.8°F-16.2°C 56% Calm Calm 1.6 mph2.6 kmh 29.36 in994.2 mb 0.00 in0.0 mm 0.00 in0.0 mm 0.00 in0.0 mm
06:50 AM 15.6°F-9.1°C 2.8°F-16.2°C 56% Calm Calm 1.6 mph2.6 kmh 29.37 in994.6 mb 0.00 in0.0 mm 0.00 in0.0 mm 0.00 in0.0 mm
06:45 AM 15.4°F-9.2°C 2.6°F-16.3°C 56% Calm Calm 1.6 mph2.6 kmh 29.37 in994.6 mb 0.00 in0.0 mm 0.00 in0.0 mm 0.00 in0.0 mm
06:40 AM 15.4°F-9.2°C 2.6°F-16.3°C 56% Calm Calm 1.6 mph2.6 kmh 29.36 in994.2 mb 0.00 in0.0 mm 0.00 in0.0 mm 0.00 in0.0 mm
06:35 AM 15.4°F-9.2°C 2.6°F-16.3°C 56% Calm Calm 1.6 mph2.6 kmh 29.36 in994.2 mb 0.00 in0.0 mm 0.00 in0.0 mm 0.00 in0.0 mm
06:30 AM 15.3°F-9.3°C 2.5°F-16.4°C 56% Calm Calm 1.6 mph2.6 kmh 29.36 in994.2 mb 0.00 in0.0 mm 0.00 in0.0 mm 0.00 in0.0 mm
06:25 AM 15.3°F-9.3°C 2.5°F-16.4°C 56% 0.7 mph NW1.1 kmh NW 1.6 mph2.6 kmh 29.36 in994.2 mb 0.00 in0.0 mm 0.00 in0.0 mm 0.00 in0.0 mm
06:20 AM 15.3°F-9.3°C 2.5°F-16.4°C 56% Calm Calm -- 29.36 in994.2 mb 0.00 in0.0 mm 0.00 in0.0 mm 0.00 in0.0 mm
06:15 AM 15.3°F-9.3°C 2.5°F-16.4°C 56% Calm Calm 0.7 mph1.1 kmh 29.36 in994.2 mb 0.00 in0.0 mm 0.00 in0.0 mm 0.00 in0.0 mm
06:10 AM 15.1°F-9.4°C 2.3°F-16.5°C 56% Calm Calm 1.6 mph2.6 kmh 29.36 in994.2 mb 0.00 in0.0 mm 0.00 in0.0 mm 0.00 in0.0 mm
06:05 AM 15.1°F-9.4°C 2.3°F-16.5°C 56% Calm Calm 1.6 mph2.6 kmh 29.35 in993.9 mb 0.00 in0.0 mm 0.00 in0.0 mm 0.00 in0.0 mm
06:00 AM 15.1°F-9.4°C 2.3°F-16.5°C 56% Calm Calm 1.6 mph2.6 kmh 29.35 in993.9 mb 0.00 in0.0 mm 0.00 in0.0 mm 0.00 in0.0 mm
05:55 AM 15.1°F-9.4°C 2.3°F-16.5°C 56% Calm Calm 1.6 mph2.6 kmh 29.35 in993.9 mb 0.00 in0.0 mm 0.00 in0.0 mm 0.00 in0.0 mm
05:50 AM 15.3°F-9.3°C 2.5°F-16.4°C 56% Calm Calm 1.6 mph2.6 kmh 29.35 in993.9 mb 0.00 in0.0 mm 0.00 in0.0 mm 0.00 in0.0 mm
05:45 AM 15.1°F-9.4°C 2.3°F-16.5°C 56% Calm Calm 0.7 mph1.1 kmh 29.34 in993.6 mb 0.00 in0.0 mm 0.00 in0.0 mm 0.00 in0.0 mm
05:40 AM 15.1°F-9.4°C 2.3°F-16.5°C 56% Calm Calm 0.7 mph1.1 kmh 29.34 in993.6 mb 0.00 in0.0 mm 0.00 in0.0 mm 0.00 in0.0 mm
05:35 AM 15.1°F-9.4°C 2.3°F-16.5°C 56% Calm Calm 1.6 mph2.6 kmh 29.34 in993.6 mb 0.00 in0.0 mm 0.00 in0.0 mm 0.00 in0.0 mm
05:30 AM 14.9°F-9.5°C 2.1°F-16.6°C 56% Calm Calm 1.6 mph2.6 kmh 29.34 in993.6 mb 0.00 in0.0 mm 0.00 in0.0 mm 0.00 in0.0 mm
05:25 AM 14.9°F-9.5°C 2.1°F-16.6°C 56% Calm Calm 1.6 mph2.6 kmh 29.34 in993.6 mb 0.00 in0.0 mm 0.00 in0.0 mm 0.00 in0.0 mm
05:20 AM 14.9°F-9.5°C 2.1°F-16.6°C 56% Calm Calm 1.6 mph2.6 kmh 29.34 in993.6 mb 0.00 in0.0 mm 0.00 in0.0 mm 0.00 in0.0 mm
05:15 AM 14.9°F-9.5°C 2.1°F-16.6°C 56% 0.7 mph NW1.1 kmh NW 2.2 mph3.5 kmh 29.34 in993.6 mb 0.00 in0.0 mm 0.00 in0.0 mm 0.00 in0.0 mm
05:10 AM 14.9°F-9.5°C 2.1°F-16.6°C 56% Calm Calm 2.2 mph3.5 kmh 29.33 in993.2 mb 0.00 in0.0 mm 0.00 in0.0 mm 0.00 in0.0 mm
05:05 AM 14.7°F-9.6°C 1.9°F-16.7°C 56% Calm Calm -- 29.33 in993.2 mb 0.00 in0.0 mm 0.00 in0.0 mm 0.00 in0.0 mm
05:00 AM 14.7°F-9.6°C 1.9°F-16.7°C 56% Calm Calm 2.2 mph3.5 kmh 29.33 in993.2 mb 0.00 in0.0 mm 0.00 in0.0 mm 0.00 in0.0 mm
04:55 AM 14.7°F-9.6°C 1.9°F-16.7°C 56% Calm Calm 2.2 mph3.5 kmh 29.34 in993.6 mb 0.00 in0.0 mm 0.00 in0.0 mm 0.00 in0.0 mm
04:50 AM 14.4°F-9.8°C 1.6°F-16.9°C 56% 0.7 mph NW1.1 kmh NW 1.6 mph2.6 kmh 29.34 in993.6 mb 0.00 in0.0 mm 0.00 in0.0 mm 0.00 in0.0 mm
04:45 AM 14.2°F-9.9°C 1.4°F-17.0°C 56% Calm Calm 2.2 mph3.5 kmh 29.33 in993.2 mb 0.00 in0.0 mm 0.00 in0.0 mm 0.00 in0.0 mm
04:40 AM 14.2°F-9.9°C 1.4°F-17.0°C 56% Calm Calm 2.2 mph3.5 kmh 29.33 in993.2 mb 0.00 in0.0 mm 0.00 in0.0 mm 0.00 in0.0 mm
04:35 AM 14.0°F-10.0°C 1.3°F-17.1°C 56% 0.7 mph NW1.1 kmh NW 2.2 mph3.5 kmh 29.33 in993.2 mb 0.00 in0.0 mm 0.00 in0.0 mm 0.00 in0.0 mm
04:30 AM 14.0°F-10.0°C 1.3°F-17.1°C 56% 0.7 mph NW1.1 kmh NW 2.2 mph3.5 kmh 29.33 in993.2 mb 0.00 in0.0 mm 0.00 in0.0 mm 0.00 in0.0 mm
04:25 AM 13.8°F-10.1°C 1.1°F-17.2°C 56% 0.7 mph NW1.1 kmh NW 2.2 mph3.5 kmh 29.33 in993.2 mb 0.00 in0.0 mm 0.00 in0.0 mm 0.00 in0.0 mm
04:20 AM 13.5°F-10.3°C 0.8°F-17.3°C 56% 1.6 mph NW2.6 kmh NW 2.2 mph3.5 kmh 29.34 in993.6 mb 0.00 in0.0 mm 0.00 in0.0 mm 0.00 in0.0 mm
04:15 AM 13.5°F-10.3°C 0.8°F-17.3°C 56% Calm Calm 1.6 mph2.6 kmh 29.33 in993.2 mb 0.00 in0.0 mm 0.00 in0.0 mm 0.00 in0.0 mm
04:10 AM 13.3°F-10.4°C 0.6°F-17.4°C 56% Calm Calm 1.6 mph2.6 kmh 29.32 in992.9 mb 0.00 in0.0 mm 0.00 in0.0 mm 0.00 in0.0 mm
04:05 AM 13.1°F-10.5°C 0.4°F-17.6°C 56% Calm Calm 1.6 mph2.6 kmh 29.32 in992.9 mb 0.00 in0.0 mm 0.00 in0.0 mm 0.00 in0.0 mm
04:00 AM 12.9°F-10.6°C 0.3°F-17.6°C 56% Calm Calm 1.6 mph2.6 kmh 29.32 in992.9 mb 0.00 in0.0 mm 0.00 in0.0 mm 0.00 in0.0 mm
03:55 AM 12.9°F-10.6°C 0.3°F-17.6°C 56% Calm Calm 0.7 mph1.1 kmh 29.32 in992.9 mb 0.00 in0.0 mm 0.00 in0.0 mm 0.00 in0.0 mm
03:50 AM 12.7°F-10.7°C 0.1°F-17.7°C 56% Calm Calm 0.7 mph1.1 kmh 29.32 in992.9 mb 0.00 in0.0 mm 0.00 in0.0 mm 0.00 in0.0 mm
03:45 AM 12.7°F-10.7°C 0.1°F-17.7°C 56% Calm Calm 0.7 mph1.1 kmh 29.32 in992.9 mb 0.00 in0.0 mm 0.00 in0.0 mm 0.00 in0.0 mm
03:40 AM 12.6°F-10.8°C -0.1°F-17.8°C 56% Calm Calm 0.7 mph1.1 kmh 29.33 in993.2 mb 0.00 in0.0 mm 0.00 in0.0 mm 0.00 in0.0 mm
03:35 AM 12.6°F-10.8°C -0.1°F-17.8°C 56% Calm Calm 1.6 mph2.6 kmh 29.32 in992.9 mb 0.00 in0.0 mm 0.00 in0.0 mm 0.00 in0.0 mm
03:30 AM 12.6°F-10.8°C -0.1°F-17.8°C 56% Calm Calm 1.6 mph2.6 kmh 29.32 in992.9 mb 0.00 in0.0 mm 0.00 in0.0 mm 0.00 in0.0 mm
03:25 AM 12.4°F-10.9°C -0.2°F-17.9°C 56% Calm Calm 1.6 mph2.6 kmh 29.32 in992.9 mb 0.00 in0.0 mm 0.00 in0.0 mm 0.00 in0.0 mm
03:20 AM 12.4°F-10.9°C -0.2°F-17.9°C 56% Calm Calm 1.6 mph2.6 kmh 29.33 in993.2 mb 0.00 in0.0 mm 0.00 in0.0 mm 0.00 in0.0 mm
03:15 AM 12.2°F-11.0°C -0.4°F-18.0°C 56% Calm Calm 1.6 mph2.6 kmh 29.32 in992.9 mb 0.00 in0.0 mm 0.00 in0.0 mm 0.00 in0.0 mm
03:10 AM 12.2°F-11.0°C -0.4°F-18.0°C 56% Calm Calm 1.6 mph2.6 kmh 29.33 in993.2 mb 0.00 in0.0 mm 0.00 in0.0 mm 0.00 in0.0 mm
03:05 AM 12.0°F-11.1°C -0.6°F-18.1°C 56% Calm Calm 1.6 mph2.6 kmh 29.33 in993.2 mb 0.00 in0.0 mm 0.00 in0.0 mm 0.00 in0.0 mm
03:00 AM 12.0°F-11.1°C -0.6°F-18.1°C 56% Calm Calm 1.6 mph2.6 kmh 29.33 in993.2 mb 0.00 in0.0 mm 0.00 in0.0 mm 0.00 in0.0 mm
02:55 AM 11.8°F-11.2°C -0.7°F-18.2°C 56% Calm Calm 0.7 mph1.1 kmh 29.33 in993.2 mb 0.00 in0.0 mm 0.00 in0.0 mm 0.00 in0.0 mm
02:50 AM 11.7°F-11.3°C -0.9°F-18.3°C 56% Calm Calm 0.7 mph1.1 kmh 29.32 in992.9 mb 0.00 in0.0 mm 0.00 in0.0 mm 0.00 in0.0 mm
02:45 AM 11.5°F-11.4°C -1.1°F-18.4°C 56% Calm Calm 1.6 mph2.6 kmh 29.33 in993.2 mb 0.00 in0.0 mm 0.00 in0.0 mm 0.00 in0.0 mm
02:40 AM 11.5°F-11.4°C -1.1°F-18.4°C 56% Calm Calm 1.6 mph2.6 kmh 29.33 in993.2 mb 0.00 in0.0 mm 0.00 in0.0 mm 0.00 in0.0 mm
02:35 AM 11.3°F-11.5°C -1.3°F-18.5°C 56% Calm Calm 0.7 mph1.1 kmh 29.32 in992.9 mb 0.00 in0.0 mm 0.00 in0.0 mm 0.00 in0.0 mm
02:30 AM 11.1°F-11.6°C -1.4°F-18.6°C 56% Calm Calm -- 29.33 in993.2 mb 0.00 in0.0 mm 0.00 in0.0 mm 0.00 in0.0 mm
02:25 AM 10.9°F-11.7°C -1.6°F-18.7°C 56% Calm Calm 1.6 mph2.6 kmh 29.34 in993.6 mb 0.00 in0.0 mm 0.00 in0.0 mm 0.00 in0.0 mm
02:20 AM 10.8°F-11.8°C -1.8°F-18.8°C 56% Calm Calm 1.6 mph2.6 kmh 29.34 in993.6 mb 0.00 in0.0 mm 0.00 in0.0 mm 0.00 in0.0 mm
02:15 AM 10.6°F-11.9°C -1.9°F-18.8°C 56% 0.7 mph NW1.1 kmh NW 1.6 mph2.6 kmh 29.33 in993.2 mb 0.00 in0.0 mm 0.00 in0.0 mm 0.00 in0.0 mm
02:10 AM 10.6°F-11.9°C -1.9°F-18.8°C 56% Calm Calm 1.6 mph2.6 kmh 29.33 in993.2 mb 0.00 in0.0 mm 0.00 in0.0 mm 0.00 in0.0 mm
02:05 AM 10.4°F-12.0°C -2.1°F-18.9°C 56% Calm Calm 2.2 mph3.5 kmh 29.33 in993.2 mb 0.00 in0.0 mm 0.00 in0.0 mm 0.00 in0.0 mm
02:00 AM 10.2°F-12.1°C -2.3°F-19.1°C 56% Calm Calm 2.2 mph3.5 kmh 29.33 in993.2 mb 0.00 in0.0 mm 0.00 in0.0 mm 0.00 in0.0 mm
01:55 AM 10.2°F-12.1°C -2.3°F-19.1°C 56% 0.7 mph NW1.1 kmh NW 1.6 mph2.6 kmh 29.33 in993.2 mb 0.00 in0.0 mm 0.00 in0.0 mm 0.00 in0.0 mm
01:50 AM 10.2°F-12.1°C -2.3°F-19.1°C 56% Calm Calm -- 29.33 in993.2 mb 0.00 in0.0 mm 0.00 in0.0 mm 0.00 in0.0 mm
01:45 AM 10.0°F-12.2°C -2.4°F-19.1°C 56% Calm Calm -- 29.32 in992.9 mb 0.00 in0.0 mm 0.00 in0.0 mm 0.00 in0.0 mm
01:40 AM 10.0°F-12.2°C -2.4°F-19.1°C 56% Calm Calm -- 29.31 in992.6 mb 0.00 in0.0 mm 0.00 in0.0 mm 0.00 in0.0 mm
01:35 AM 10.0°F-12.2°C -2.4°F-19.1°C 56% Calm Calm 0.7 mph1.1 kmh 29.31 in992.6 mb 0.00 in0.0 mm 0.00 in0.0 mm 0.00 in0.0 mm
01:30 AM 10.0°F-12.2°C -2.4°F-19.1°C 56% Calm Calm 0.7 mph1.1 kmh 29.32 in992.9 mb 0.00 in0.0 mm 0.00 in0.0 mm 0.00 in0.0 mm
01:25 AM 10.2°F-12.1°C -2.3°F-19.1°C 56% Calm Calm 1.6 mph2.6 kmh 29.31 in992.6 mb 0.00 in0.0 mm 0.00 in0.0 mm 0.00 in0.0 mm
01:20 AM 10.4°F-12.0°C -2.1°F-18.9°C 56% 0.7 mph NW1.1 kmh NW 1.6 mph2.6 kmh 29.32 in992.9 mb 0.00 in0.0 mm 0.00 in0.0 mm 0.00 in0.0 mm
01:15 AM 10.6°F-11.9°C -1.9°F-18.8°C 56% Calm Calm 0.7 mph1.1 kmh 29.32 in992.9 mb 0.00 in0.0 mm 0.00 in0.0 mm 0.00 in0.0 mm
01:10 AM 10.8°F-11.8°C -1.8°F-18.8°C 56% Calm Calm 0.7 mph1.1 kmh 29.32 in992.9 mb 0.00 in0.0 mm 0.00 in0.0 mm 0.00 in0.0 mm
01:05 AM 10.8°F-11.8°C -1.8°F-18.8°C 56% Calm Calm 0.7 mph1.1 kmh 29.32 in992.9 mb 0.00 in0.0 mm 0.00 in0.0 mm 0.00 in0.0 mm
01:00 AM 10.8°F-11.8°C -1.8°F-18.8°C 56% Calm Calm 2.2 mph3.5 kmh 29.31 in992.6 mb 0.00 in0.0 mm 0.00 in0.0 mm 0.00 in0.0 mm
12:55 AM 10.9°F-11.7°C -1.6°F-18.7°C 56% Calm Calm 2.2 mph3.5 kmh 29.32 in992.9 mb 0.00 in0.0 mm 0.00 in0.0 mm 0.00 in0.0 mm
12:50 AM 11.3°F-11.5°C -1.3°F-18.5°C 56% 0.7 mph NW1.1 kmh NW 2.2 mph3.5 kmh 29.31 in992.6 mb 0.00 in0.0 mm 0.00 in0.0 mm 0.00 in0.0 mm
12:45 AM 11.5°F-11.4°C -1.1°F-18.4°C 56% 0.7 mph NW1.1 kmh NW 2.2 mph3.5 kmh 29.32 in992.9 mb 0.00 in0.0 mm 0.00 in0.0 mm 0.00 in0.0 mm
12:40 AM 11.3°F-11.5°C -1.3°F-18.5°C 56% Calm Calm 3.1 mph5.0 kmh 29.32 in992.9 mb 0.00 in0.0 mm 0.00 in0.0 mm 0.00 in0.0 mm
12:35 AM 11.3°F-11.5°C -1.3°F-18.5°C 56% 0.7 mph NW1.1 kmh NW 3.1 mph5.0 kmh 29.31 in992.6 mb 0.00 in0.0 mm 0.00 in0.0 mm 0.00 in0.0 mm
12:30 AM 11.5°F-11.4°C -1.1°F-18.4°C 56% Calm Calm 3.1 mph5.0 kmh 29.32 in992.9 mb 0.00 in0.0 mm 0.00 in0.0 mm 0.00 in0.0 mm
12:25 AM 11.5°F-11.4°C -1.1°F-18.4°C 56% Calm Calm 3.1 mph5.0 kmh 29.31 in992.6 mb 0.00 in0.0 mm 0.00 in0.0 mm 0.00 in0.0 mm
12:20 AM 11.3°F-11.5°C -1.3°F-18.5°C 56% 1.6 mph NW2.6 kmh NW 3.1 mph5.0 kmh 29.32 in992.9 mb 0.00 in0.0 mm 0.00 in0.0 mm 0.00 in0.0 mm
12:15 AM 10.9°F-11.7°C -1.6°F-18.7°C 56% 0.7 mph NW1.1 kmh NW 3.8 mph6.1 kmh 29.32 in992.9 mb 0.00 in0.0 mm 0.00 in0.0 mm 0.00 in0.0 mm
12:10 AM 10.4°F-12.0°C -2.1°F-18.9°C 56% 1.6 mph NNW2.6 kmh NNW 3.8 mph6.1 kmh 29.33 in993.2 mb 0.00 in0.0 mm 0.00 in0.0 mm 0.00 in0.0 mm
12:05 AM 9.7°F-12.4°C -2.8°F-19.3°C 56% 1.6 mph NNW2.6 kmh NNW 3.1 mph5.0 kmh 29.32 in992.9 mb 0.00 in0.0 mm 0.00 in0.0 mm 0.00 in0.0 mm
12:00 AM 9.5°F-12.5°C -2.9°F-19.4°C 56% 1.6 mph NNW2.6 kmh NNW 3.1 mph5.0 kmh 29.32 in992.9 mb 0.00 in0.0 mm 0.00 in0.0 mm 0.00 in0.0 mm